createdAt,value
2019-03-05T00:00:05.505Z,935.84
2019-03-05T00:01:05.499Z,935.89
2019-03-05T00:02:05.478Z,935.86
2019-03-05T00:03:05.487Z,935.89
2019-03-05T00:04:05.459Z,935.87
2019-03-05T00:05:05.446Z,935.92
2019-03-05T00:06:05.461Z,935.79
2019-03-05T00:07:05.419Z,935.86
2019-03-05T00:08:05.406Z,935.83
2019-03-05T00:09:05.426Z,935.91
2019-03-05T00:10:05.387Z,935.99
2019-03-05T00:11:05.374Z,935.93
2019-03-05T00:12:05.377Z,936.00
2019-03-05T00:13:05.354Z,936.03
2019-03-05T00:14:05.349Z,935.92
2019-03-05T00:15:05.383Z,936.02
2019-03-05T00:16:05.324Z,936.01
2019-03-05T00:17:05.328Z,936.07
2019-03-05T00:18:05.300Z,936.01
2019-03-05T00:19:05.299Z,936.08
2019-03-05T00:20:05.295Z,936.01
2019-03-05T00:21:05.279Z,936.01
2019-03-05T00:22:05.247Z,936.03
2019-03-05T00:23:05.255Z,936.03
2019-03-05T00:24:05.232Z,936.05
2019-03-05T00:25:05.224Z,936.06
2019-03-05T00:26:05.289Z,936.05
2019-03-05T00:27:05.191Z,936.13
2019-03-05T00:28:05.187Z,936.17
2019-03-05T00:29:05.193Z,936.21
2019-03-05T00:30:05.170Z,936.10
2019-03-05T00:31:05.148Z,936.16
2019-03-05T00:32:05.175Z,936.17
2019-03-05T00:33:05.124Z,936.14
2019-03-05T00:34:05.138Z,936.12
2019-03-05T00:35:05.116Z,936.16
2019-03-05T00:36:05.093Z,936.15
2019-03-05T00:37:05.083Z,936.16
2019-03-05T00:38:05.097Z,936.17
2019-03-05T00:39:05.094Z,936.15
2019-03-05T00:40:05.050Z,936.18
2019-03-05T00:41:05.044Z,936.17
2019-03-05T00:42:05.029Z,936.23
2019-03-05T00:43:05.014Z,936.34
2019-03-05T00:44:05.023Z,936.27
2019-03-05T00:45:05.014Z,936.25
2019-03-05T00:46:04.988Z,936.37
2019-03-05T00:47:04.976Z,936.36
2019-03-05T00:48:04.961Z,936.25
2019-03-05T00:49:04.948Z,936.33
2019-03-05T00:50:04.957Z,936.31
2019-03-05T00:51:04.938Z,936.33
2019-03-05T00:52:04.924Z,936.35
2019-03-05T00:53:04.905Z,936.31
2019-03-05T00:54:04.895Z,936.32
2019-03-05T00:55:04.881Z,936.34
2019-03-05T00:56:04.903Z,936.33
2019-03-05T00:57:04.874Z,936.56
2019-03-05T00:58:04.847Z,936.46
2019-03-05T00:59:04.832Z,936.48
2019-03-05T01:00:04.825Z,936.39
2019-03-05T01:01:04.813Z,936.40
2019-03-05T01:02:04.833Z,936.51
2019-03-05T01:03:04.789Z,936.64
2019-03-05T01:04:04.782Z,936.45
2019-03-05T01:05:04.763Z,936.50
2019-03-05T01:06:04.757Z,936.52
2019-03-05T01:07:04.822Z,936.53
2019-03-05T01:08:04.737Z,936.34
2019-03-05T01:09:04.757Z,936.43
2019-03-05T01:10:04.701Z,936.52
2019-03-05T01:11:04.703Z,936.55
2019-03-05T01:12:04.710Z,936.50
2019-03-05T01:13:04.680Z,936.50
2019-03-05T01:14:04.676Z,936.50
2019-03-05T01:15:04.689Z,936.50
2019-03-05T01:16:04.647Z,936.59
2019-03-05T01:17:04.636Z,936.57
2019-03-05T01:18:04.657Z,936.53
2019-03-05T01:19:04.618Z,936.45
2019-03-05T01:20:04.612Z,936.53
2019-03-05T01:21:04.632Z,936.48
2019-03-05T01:22:04.578Z,936.42
2019-03-05T01:23:04.565Z,936.43
2019-03-05T01:24:04.728Z,936.40
2019-03-05T01:25:04.543Z,936.36
2019-03-05T01:26:04.525Z,936.34
2019-03-05T01:27:04.540Z,936.29
2019-03-05T01:28:04.510Z,936.41
2019-03-05T01:29:04.502Z,936.45
2019-03-05T01:30:04.506Z,936.54
2019-03-05T01:31:04.473Z,936.43
2019-03-05T01:32:04.461Z,936.46
2019-03-05T01:33:04.474Z,936.44
2019-03-05T01:34:04.439Z,936.36
2019-03-05T01:35:04.446Z,936.30
2019-03-05T01:36:04.420Z,936.34
2019-03-05T01:37:04.403Z,936.41
2019-03-05T01:38:04.397Z,936.43
2019-03-05T01:39:04.401Z,936.44
2019-03-05T01:40:04.398Z,936.38
2019-03-05T01:41:04.367Z,936.31
2019-03-05T01:42:04.351Z,936.35
2019-03-05T01:43:04.342Z,936.20
2019-03-05T01:44:04.328Z,936.29
2019-03-05T01:45:04.373Z,936.27
2019-03-05T01:46:04.305Z,936.22
2019-03-05T01:47:04.294Z,936.22
2019-03-05T01:48:04.308Z,936.30
2019-03-05T01:49:04.276Z,936.27
2019-03-05T01:50:04.259Z,936.27
2019-03-05T01:51:04.293Z,936.28
2019-03-05T01:52:04.238Z,936.32
2019-03-05T01:53:04.227Z,936.30
2019-03-05T01:54:04.286Z,936.33
2019-03-05T01:55:04.208Z,936.33
2019-03-05T01:56:04.453Z,936.37
2019-03-05T01:57:04.223Z,936.23
2019-03-05T01:58:04.167Z,936.31
2019-03-05T01:59:04.161Z,936.40
2019-03-05T02:00:04.152Z,936.33
2019-03-05T02:01:04.149Z,936.31
2019-03-05T02:02:04.133Z,936.27
2019-03-05T02:03:04.135Z,936.29
2019-03-05T02:04:04.103Z,936.32
2019-03-05T02:05:04.096Z,936.25
2019-03-05T02:06:04.084Z,936.14
2019-03-05T02:07:04.083Z,936.16
2019-03-05T02:08:04.059Z,936.20
2019-03-05T02:09:04.068Z,936.25
2019-03-05T02:10:04.038Z,936.32
2019-03-05T02:11:04.029Z,936.28
2019-03-05T02:12:04.007Z,936.32
2019-03-05T02:13:04.013Z,936.33
2019-03-05T02:14:03.992Z,936.28
2019-03-05T02:15:04.008Z,936.34
2019-03-05T02:16:04.000Z,936.35
2019-03-05T02:17:03.957Z,936.29
2019-03-05T02:18:03.946Z,936.31
2019-03-05T02:19:03.938Z,936.28
2019-03-05T02:20:03.945Z,936.35
2019-03-05T02:21:03.938Z,936.30
2019-03-05T02:22:03.900Z,936.35
2019-03-05T02:23:03.890Z,936.34
2019-03-05T02:24:03.879Z,936.38
2019-03-05T02:25:03.866Z,936.48
2019-03-05T02:26:03.877Z,936.39
2019-03-05T02:27:03.890Z,936.35
2019-03-05T02:28:03.827Z,936.42
2019-03-05T02:29:03.816Z,936.32
2019-03-05T02:30:03.807Z,936.44
2019-03-05T02:31:03.795Z,936.48
2019-03-05T02:32:03.810Z,936.47
2019-03-05T02:33:03.798Z,936.46
2019-03-05T02:34:03.761Z,936.44
2019-03-05T02:35:03.756Z,936.34
2019-03-05T02:36:03.742Z,936.37
2019-03-05T02:37:03.725Z,936.42
2019-03-05T02:38:05.634Z,936.37
2019-03-05T02:39:03.715Z,936.52
2019-03-05T02:40:03.700Z,936.40
2019-03-05T02:41:03.690Z,936.47
2019-03-05T02:42:03.678Z,936.53
2019-03-05T02:43:03.660Z,936.47
2019-03-05T02:44:03.656Z,936.58
2019-03-05T02:45:03.668Z,936.53
2019-03-05T02:46:03.628Z,936.50
2019-03-05T02:47:03.623Z,936.52
2019-03-05T02:48:03.603Z,936.45
2019-03-05T02:49:03.603Z,936.52
2019-03-05T02:50:03.593Z,936.38
2019-03-05T02:51:03.592Z,936.56
2019-03-05T02:52:03.560Z,936.45
2019-03-05T02:53:03.554Z,936.44
2019-03-05T02:54:03.560Z,936.46
2019-03-05T02:55:03.530Z,936.43
2019-03-05T02:56:03.513Z,936.35
2019-03-05T02:57:03.525Z,936.48
2019-03-05T02:58:03.492Z,936.54
2019-03-05T02:59:03.482Z,936.54
2019-03-05T03:00:03.484Z,936.56
2019-03-05T03:01:03.484Z,936.50
2019-03-05T03:02:03.445Z,936.56
2019-03-05T03:03:03.466Z,936.61
2019-03-05T03:04:03.427Z,936.59
2019-03-05T03:05:03.438Z,936.56
2019-03-05T03:06:03.408Z,936.63
2019-03-05T03:07:03.404Z,936.78
2019-03-05T03:08:03.380Z,936.84
2019-03-05T03:09:03.394Z,936.74
2019-03-05T03:10:03.390Z,936.61
2019-03-05T03:11:03.356Z,936.69
2019-03-05T03:12:03.336Z,936.69
2019-03-05T03:13:03.321Z,936.79
2019-03-05T03:14:03.311Z,936.70
2019-03-05T03:15:03.332Z,936.82
2019-03-05T03:16:03.295Z,936.75
2019-03-05T03:17:03.278Z,936.81
2019-03-05T03:18:03.273Z,936.77
2019-03-05T03:19:03.258Z,936.77
2019-03-05T03:20:03.258Z,936.85
2019-03-05T03:21:03.265Z,936.71
2019-03-05T03:22:03.253Z,936.81
2019-03-05T03:23:03.207Z,936.84
2019-03-05T03:24:03.203Z,936.90
2019-03-05T03:25:03.195Z,936.92
2019-03-05T03:26:03.173Z,936.77
2019-03-05T03:27:03.187Z,936.75
2019-03-05T03:28:03.177Z,936.87
2019-03-05T03:29:03.146Z,936.82
2019-03-05T03:30:03.147Z,936.89
2019-03-05T03:31:03.116Z,936.82
2019-03-05T03:32:03.106Z,936.83
2019-03-05T03:33:03.124Z,936.78
2019-03-05T03:34:03.112Z,936.89
2019-03-05T03:35:03.073Z,936.85
2019-03-05T03:36:03.065Z,936.91
2019-03-05T03:37:03.050Z,936.87
2019-03-05T03:38:03.047Z,936.91
2019-03-05T03:39:03.029Z,936.89
2019-03-05T03:40:06.062Z,936.77
2019-03-05T03:41:03.015Z,936.90
2019-03-05T03:42:02.996Z,936.89
2019-03-05T03:43:03.030Z,936.88
2019-03-05T03:44:02.980Z,936.81
2019-03-05T03:45:02.974Z,936.90
2019-03-05T03:46:02.981Z,936.85
2019-03-05T03:47:02.936Z,936.79
2019-03-05T03:48:02.944Z,936.92
2019-03-05T03:49:02.940Z,936.94
2019-03-05T03:50:02.906Z,937.00
2019-03-05T03:51:02.894Z,936.94
2019-03-05T03:52:02.908Z,937.00
2019-03-05T03:53:02.874Z,937.07
2019-03-05T03:54:02.867Z,937.01
2019-03-05T03:55:02.874Z,937.05
2019-03-05T03:56:02.844Z,937.12
2019-03-05T03:57:02.826Z,937.10
2019-03-05T03:58:02.841Z,937.06
2019-03-05T03:59:02.810Z,937.12
2019-03-05T04:00:02.794Z,937.08
2019-03-05T04:01:02.805Z,937.13
2019-03-05T04:02:02.774Z,937.10
2019-03-05T04:03:02.762Z,937.12
2019-03-05T04:04:02.799Z,937.15
2019-03-05T04:05:02.744Z,937.16
2019-03-05T04:06:02.740Z,937.09
2019-03-05T04:07:02.716Z,937.20
2019-03-05T04:08:14.786Z,937.14
2019-03-05T04:10:14.025Z,937.12
2019-03-05T04:11:14.063Z,937.25
2019-03-05T04:12:13.972Z,937.16
2019-03-05T04:13:14.029Z,937.22
2019-03-05T04:14:13.911Z,937.23
2019-03-05T04:15:13.889Z,937.29
2019-03-05T04:16:14.671Z,937.21
2019-03-05T04:17:13.886Z,937.24
2019-03-05T04:18:13.847Z,937.24
2019-03-05T04:19:13.862Z,937.30
2019-03-05T04:20:13.829Z,937.36
2019-03-05T04:21:13.815Z,937.32
2019-03-05T04:22:13.802Z,937.37
2019-03-05T04:23:13.801Z,937.34
2019-03-05T04:24:13.809Z,937.31
2019-03-05T04:25:13.761Z,937.36
2019-03-05T04:26:13.754Z,937.31
2019-03-05T04:27:13.751Z,937.28
2019-03-05T04:28:13.761Z,937.23
2019-03-05T04:29:13.726Z,937.29
2019-03-05T04:30:13.738Z,937.28
2019-03-05T04:31:13.705Z,937.27
2019-03-05T04:32:13.699Z,937.28
2019-03-05T04:33:13.684Z,937.26
2019-03-05T04:34:13.670Z,937.17
2019-03-05T04:35:13.652Z,937.27
2019-03-05T04:36:13.655Z,937.34
2019-03-05T04:37:13.628Z,937.25
2019-03-05T04:38:13.624Z,937.31
2019-03-05T04:39:13.637Z,937.24
2019-03-05T04:40:13.600Z,937.24
2019-03-05T04:41:13.617Z,937.30
2019-03-05T04:42:13.581Z,937.31
2019-03-05T04:43:13.562Z,937.29
2019-03-05T04:44:13.553Z,937.26
2019-03-05T04:45:13.648Z,937.30
2019-03-05T04:46:13.525Z,937.32
2019-03-05T04:47:13.530Z,937.26
2019-03-05T04:48:13.512Z,937.34
2019-03-05T04:49:13.493Z,937.31
2019-03-05T04:50:13.486Z,937.40
2019-03-05T04:51:13.485Z,937.32
2019-03-05T04:52:13.506Z,937.19
2019-03-05T04:53:13.484Z,937.24
2019-03-05T04:54:13.441Z,937.32
2019-03-05T04:55:13.428Z,937.31
2019-03-05T04:56:13.445Z,937.39
2019-03-05T04:57:13.408Z,937.38
2019-03-05T04:58:13.397Z,937.43
2019-03-05T04:59:13.408Z,937.40
2019-03-05T05:00:13.373Z,937.36
2019-03-05T05:01:13.366Z,937.45
2019-03-05T05:02:13.370Z,937.38
2019-03-05T05:03:13.344Z,937.45
2019-03-05T05:04:13.326Z,937.34
2019-03-05T05:05:13.340Z,937.32
2019-03-05T05:06:13.304Z,937.34
2019-03-05T05:07:13.290Z,937.44
2019-03-05T05:08:13.290Z,937.35
2019-03-05T05:09:13.276Z,937.36
2019-03-05T05:10:13.264Z,937.42
2019-03-05T05:11:13.287Z,937.37
2019-03-05T05:12:13.240Z,937.45
2019-03-05T05:13:13.250Z,937.40
2019-03-05T05:14:13.218Z,937.38
2019-03-05T05:15:13.205Z,937.39
2019-03-05T05:16:13.205Z,937.39
2019-03-05T05:17:13.196Z,937.49
2019-03-05T05:18:13.164Z,937.45
2019-03-05T05:19:13.187Z,937.53
2019-03-05T05:20:13.144Z,937.56
2019-03-05T05:21:13.140Z,937.54
2019-03-05T05:22:13.133Z,937.52
2019-03-05T05:23:13.119Z,937.58
2019-03-05T05:24:13.121Z,937.55
2019-03-05T05:25:13.129Z,937.54
2019-03-05T05:26:13.081Z,937.56
2019-03-05T05:27:13.071Z,937.46
2019-03-05T05:28:13.066Z,937.53
2019-03-05T05:29:13.040Z,937.52
2019-03-05T05:30:13.036Z,937.58
2019-03-05T05:31:13.065Z,937.57
2019-03-05T05:32:13.010Z,937.48
2019-03-05T05:33:13.000Z,937.56
2019-03-05T05:34:13.008Z,937.55
2019-03-05T05:35:12.996Z,937.59
2019-03-05T05:36:12.999Z,937.59
2019-03-05T05:37:12.953Z,937.55
2019-03-05T05:38:12.962Z,937.69
2019-03-05T05:39:12.936Z,937.64
2019-03-05T05:40:12.959Z,937.59
2019-03-05T05:41:12.920Z,937.62
2019-03-05T05:42:12.935Z,937.60
2019-03-05T05:43:12.895Z,937.59
2019-03-05T05:44:12.934Z,937.65
2019-03-05T05:45:12.869Z,937.66
2019-03-05T05:46:12.868Z,937.68
2019-03-05T05:47:12.840Z,937.69
2019-03-05T05:48:12.849Z,937.71
2019-03-05T05:49:12.827Z,937.73
2019-03-05T05:50:12.808Z,937.71
2019-03-05T05:51:12.796Z,937.73
2019-03-05T05:52:12.811Z,937.76
2019-03-05T05:53:12.803Z,937.76
2019-03-05T05:54:12.767Z,937.71
2019-03-05T05:55:12.757Z,937.68
2019-03-05T05:56:12.754Z,937.82
2019-03-05T05:57:12.729Z,937.79
2019-03-05T05:58:12.740Z,937.84
2019-03-05T05:59:12.719Z,937.72
2019-03-05T06:00:12.692Z,937.73
2019-03-05T06:01:12.689Z,937.73
2019-03-05T06:02:12.676Z,937.74
2019-03-05T06:03:12.666Z,937.73
2019-03-05T06:04:12.696Z,937.74
2019-03-05T06:05:12.639Z,937.80
2019-03-05T06:06:12.631Z,937.77
2019-03-05T06:07:12.624Z,937.71
2019-03-05T06:08:12.605Z,937.66
2019-03-05T06:09:12.603Z,937.75
2019-03-05T06:10:12.612Z,937.75
2019-03-05T06:11:12.567Z,937.73
2019-03-05T06:12:12.567Z,937.77
2019-03-05T06:13:12.550Z,937.71
2019-03-05T06:14:12.535Z,937.83
2019-03-05T06:15:12.544Z,937.68
2019-03-05T06:16:12.531Z,937.71
2019-03-05T06:17:12.512Z,937.72
2019-03-05T06:18:12.499Z,937.76
2019-03-05T06:19:12.489Z,937.80
2019-03-05T06:20:12.477Z,937.76
2019-03-05T06:21:12.517Z,937.78
2019-03-05T06:22:12.444Z,937.78
2019-03-05T06:23:12.442Z,937.83
2019-03-05T06:24:12.423Z,937.77
2019-03-05T06:25:12.417Z,937.81
2019-03-05T06:26:12.401Z,937.90
2019-03-05T06:27:12.430Z,937.82
2019-03-05T06:28:12.383Z,937.76
2019-03-05T06:29:12.378Z,937.73
2019-03-05T06:30:12.357Z,937.86
2019-03-05T06:31:12.344Z,937.80
2019-03-05T06:32:12.340Z,937.83
2019-03-05T06:33:12.357Z,937.75
2019-03-05T06:34:12.316Z,937.68
2019-03-05T06:35:12.304Z,937.82
2019-03-05T06:36:12.288Z,937.70
2019-03-05T06:37:12.274Z,937.69
2019-03-05T06:38:12.288Z,937.70
2019-03-05T06:39:12.275Z,937.73
2019-03-05T06:40:12.248Z,937.64
2019-03-05T06:41:12.237Z,937.76
2019-03-05T06:42:12.228Z,937.71
2019-03-05T06:43:12.206Z,937.76
2019-03-05T06:44:12.221Z,937.64
2019-03-05T06:45:12.214Z,937.68
2019-03-05T06:46:12.185Z,937.70
2019-03-05T06:47:12.169Z,937.75
2019-03-05T06:48:12.148Z,937.86
2019-03-05T06:49:12.141Z,937.77
2019-03-05T06:50:12.169Z,937.75
2019-03-05T06:51:12.121Z,937.80
2019-03-05T06:52:12.134Z,937.84
2019-03-05T06:53:12.094Z,937.88
2019-03-05T06:54:12.087Z,937.79
2019-03-05T06:55:12.077Z,937.87
2019-03-05T06:56:12.086Z,937.83
2019-03-05T06:57:12.058Z,937.84
2019-03-05T06:58:12.126Z,937.79
2019-03-05T06:59:12.021Z,937.86
2019-03-05T07:00:12.018Z,937.78
2019-03-05T07:01:12.032Z,937.79
2019-03-05T07:02:12.005Z,937.75
2019-03-05T07:03:11.985Z,937.86
2019-03-05T07:04:11.989Z,937.65
2019-03-05T07:05:11.963Z,937.82
2019-03-05T07:06:11.948Z,937.84
2019-03-05T07:07:11.969Z,937.80
2019-03-05T07:08:11.925Z,937.78
2019-03-05T07:09:11.917Z,937.73
2019-03-05T07:10:11.922Z,937.76
2019-03-05T07:11:11.892Z,937.77
2019-03-05T07:12:11.926Z,937.85
2019-03-05T07:13:11.876Z,937.93
2019-03-05T07:14:11.864Z,937.86
2019-03-05T07:15:11.845Z,937.97
2019-03-05T07:16:11.850Z,938.08
2019-03-05T07:17:11.831Z,937.98
2019-03-05T07:18:11.840Z,937.90
2019-03-05T07:19:11.808Z,938.23
2019-03-05T07:20:11.823Z,938.40
2019-03-05T07:21:11.780Z,938.28
2019-03-05T07:22:11.773Z,938.10
2019-03-05T07:23:11.963Z,938.37
2019-03-05T07:24:14.242Z,938.48
2019-03-05T07:25:34.957Z,938.14
2019-03-05T07:26:12.928Z,938.29
2019-03-05T07:27:15.821Z,938.33
2019-03-05T07:28:13.115Z,938.34
2019-03-05T07:29:12.304Z,938.22
2019-03-05T07:30:11.966Z,938.21
2019-03-05T07:31:12.008Z,938.25
2019-03-05T07:32:11.702Z,938.17
2019-03-05T07:33:11.645Z,938.27
2019-03-05T07:34:13.024Z,938.31
2019-03-05T07:35:11.873Z,938.33
2019-03-05T07:36:12.579Z,938.25
2019-03-05T07:37:11.798Z,938.16
2019-03-05T07:38:11.601Z,938.13
2019-03-05T07:39:11.574Z,938.29
2019-03-05T07:40:11.673Z,938.33
2019-03-05T07:41:11.553Z,938.42
2019-03-05T07:42:11.580Z,938.39
2019-03-05T07:43:13.195Z,938.50
2019-03-05T07:44:12.175Z,938.58
2019-03-05T07:45:11.517Z,938.49
2019-03-05T07:46:11.513Z,938.48
2019-03-05T07:47:11.502Z,938.56
2019-03-05T07:48:11.475Z,938.53
2019-03-05T07:49:11.483Z,938.48
2019-03-05T07:50:11.445Z,938.49
2019-03-05T07:51:11.457Z,938.50
2019-03-05T07:52:11.449Z,938.65
2019-03-05T07:53:11.422Z,938.64
2019-03-05T07:54:11.406Z,938.58
2019-03-05T07:55:13.920Z,938.62
2019-03-05T07:56:11.385Z,938.64
2019-03-05T07:57:11.414Z,938.68
2019-03-05T07:58:11.356Z,938.69
2019-03-05T07:59:11.353Z,938.66
2019-03-05T08:00:11.336Z,938.66
2019-03-05T08:01:21.867Z,938.70
2019-03-05T08:02:12.336Z,938.74
2019-03-05T08:03:11.320Z,938.77
2019-03-05T08:04:11.293Z,938.73
2019-03-05T08:05:11.276Z,938.77
2019-03-05T08:06:11.270Z,938.72
2019-03-05T08:07:11.255Z,938.76
2019-03-05T08:08:11.273Z,938.72
2019-03-05T08:09:11.253Z,938.74
2019-03-05T08:10:11.225Z,938.75
2019-03-05T08:11:11.213Z,938.86
2019-03-05T08:12:11.200Z,938.84
2019-03-05T08:13:11.197Z,938.78
2019-03-05T08:14:11.173Z,938.83
2019-03-05T08:15:11.189Z,938.84
2019-03-05T08:16:11.155Z,938.88
2019-03-05T08:17:11.142Z,938.84
2019-03-05T08:18:11.147Z,938.82
2019-03-05T08:19:11.117Z,938.79
2019-03-05T08:20:11.111Z,938.79
2019-03-05T08:21:11.174Z,938.77
2019-03-05T08:22:11.086Z,938.81
2019-03-05T08:23:11.131Z,938.84
2019-03-05T08:24:11.059Z,938.88
2019-03-05T08:25:11.052Z,938.89
2019-03-05T08:26:11.045Z,938.85
2019-03-05T08:27:11.097Z,938.89
2019-03-05T08:28:11.018Z,938.90
2019-03-05T08:29:11.028Z,938.88
2019-03-05T08:30:14.499Z,938.90
2019-03-05T08:31:10.991Z,938.92
2019-03-05T08:32:10.973Z,938.97
2019-03-05T08:33:10.988Z,938.94
2019-03-05T08:34:10.953Z,938.95
2019-03-05T08:35:10.976Z,939.01
2019-03-05T08:36:10.934Z,939.01
2019-03-05T08:37:13.355Z,939.03
2019-03-05T08:38:10.906Z,939.02
2019-03-05T08:39:10.937Z,939.09
2019-03-05T08:40:10.934Z,939.02
2019-03-05T08:41:10.889Z,939.01
2019-03-05T08:42:10.863Z,939.03
2019-03-05T08:43:10.854Z,939.02
2019-03-05T08:44:10.845Z,938.99
2019-03-05T08:45:10.852Z,939.07
2019-03-05T08:46:11.016Z,939.04
2019-03-05T08:47:10.817Z,939.08
2019-03-05T08:48:10.800Z,939.13
2019-03-05T08:49:10.792Z,939.20
2019-03-05T08:50:10.781Z,939.21
2019-03-05T08:51:10.791Z,939.18
2019-03-05T08:52:10.784Z,939.16
2019-03-05T08:53:10.742Z,939.25
2019-03-05T08:54:10.739Z,939.23
2019-03-05T08:55:10.726Z,939.21
2019-03-05T08:56:10.711Z,939.18
2019-03-05T08:57:10.761Z,939.21
2019-03-05T08:58:10.690Z,939.19
2019-03-05T08:59:10.680Z,939.24
2019-03-05T09:00:10.665Z,939.28
2019-03-05T09:01:10.652Z,939.31
2019-03-05T09:02:10.658Z,939.23
2019-03-05T09:03:10.676Z,939.23
2019-03-05T09:04:11.580Z,939.19
2019-03-05T09:05:10.617Z,939.25
2019-03-05T09:06:10.600Z,939.27
2019-03-05T09:07:10.582Z,939.28
2019-03-05T09:08:10.625Z,939.23
2019-03-05T09:09:10.621Z,939.23
2019-03-05T09:10:10.553Z,939.27
2019-03-05T09:11:10.544Z,939.27
2019-03-05T09:12:10.549Z,939.26
2019-03-05T09:13:10.523Z,939.29
2019-03-05T09:14:10.531Z,939.28
2019-03-05T09:15:10.521Z,939.24
2019-03-05T09:16:10.492Z,939.25
2019-03-05T09:17:10.479Z,939.34
2019-03-05T09:18:10.467Z,939.39
2019-03-05T09:19:10.482Z,939.42
2019-03-05T09:20:10.465Z,939.39
2019-03-05T09:21:10.436Z,939.45
2019-03-05T09:22:10.429Z,939.46
2019-03-05T09:23:10.406Z,939.46
2019-03-05T09:24:10.398Z,939.42
2019-03-05T09:25:10.415Z,939.41
2019-03-05T09:26:10.398Z,939.45
2019-03-05T09:27:10.364Z,939.42
2019-03-05T09:28:10.362Z,939.49
2019-03-05T09:29:10.348Z,939.67
2019-03-05T09:30:10.333Z,939.40
2019-03-05T09:31:10.333Z,939.28
2019-03-05T09:32:10.336Z,939.46
2019-03-05T09:33:10.296Z,939.39
2019-03-05T09:34:10.287Z,939.40
2019-03-05T09:35:10.282Z,939.39
2019-03-05T09:36:10.307Z,939.39
2019-03-05T09:37:10.265Z,939.38
2019-03-05T09:38:10.246Z,939.43
2019-03-05T09:39:10.250Z,939.45
2019-03-05T09:40:10.216Z,939.45
2019-03-05T09:41:11.075Z,939.46
2019-03-05T09:42:10.238Z,939.48
2019-03-05T09:43:10.184Z,939.46
2019-03-05T09:44:10.581Z,939.44
2019-03-05T09:45:10.159Z,939.45
2019-03-05T09:46:10.192Z,939.41
2019-03-05T09:47:10.145Z,939.44
2019-03-05T09:48:10.148Z,939.35
2019-03-05T09:49:10.124Z,939.45
2019-03-05T09:50:10.134Z,939.40
2019-03-05T09:51:10.107Z,939.36
2019-03-05T09:52:10.092Z,939.43
2019-03-05T09:53:10.093Z,939.34
2019-03-05T09:54:10.055Z,939.45
2019-03-05T09:55:10.052Z,939.44
2019-03-05T09:56:10.057Z,939.34
2019-03-05T09:57:10.033Z,939.46
2019-03-05T09:58:10.046Z,939.40
2019-03-05T09:59:10.015Z,939.50
2019-03-05T10:00:10.002Z,939.46
2019-03-05T10:01:09.985Z,939.48
2019-03-05T10:02:10.069Z,939.50
2019-03-05T10:03:09.984Z,939.46
2019-03-05T10:04:09.946Z,939.31
2019-03-05T10:05:09.942Z,939.41
2019-03-05T10:06:09.930Z,939.52
2019-03-05T10:07:18.546Z,939.39
2019-03-05T10:08:10.956Z,939.43
2019-03-05T10:09:09.896Z,939.51
2019-03-05T10:10:09.885Z,939.49
2019-03-05T10:11:09.874Z,939.51
2019-03-05T10:12:09.862Z,939.50
2019-03-05T10:13:09.848Z,939.39
2019-03-05T10:14:09.882Z,939.54
2019-03-05T10:15:09.826Z,939.52
2019-03-05T10:16:09.821Z,939.48
2019-03-05T10:17:09.808Z,939.46
2019-03-05T10:18:12.934Z,939.50
2019-03-05T10:19:09.783Z,939.46
2019-03-05T10:20:09.918Z,939.52
2019-03-05T10:21:11.829Z,939.42
2019-03-05T10:22:09.752Z,939.46
2019-03-05T10:23:09.745Z,939.47
2019-03-05T10:24:10.948Z,939.55
2019-03-05T10:25:09.719Z,939.56
2019-03-05T10:26:10.633Z,939.51
2019-03-05T10:27:09.699Z,939.39
2019-03-05T10:28:09.686Z,939.47
2019-03-05T10:29:09.672Z,939.38
2019-03-05T10:30:09.666Z,939.39
2019-03-05T10:31:09.665Z,939.41
2019-03-05T10:32:09.666Z,939.44
2019-03-05T10:33:09.624Z,939.37
2019-03-05T10:34:09.617Z,939.38
2019-03-05T10:35:09.603Z,939.43
2019-03-05T10:36:09.613Z,939.36
2019-03-05T10:37:14.637Z,939.35
2019-03-05T10:38:10.697Z,939.25
2019-03-05T10:39:09.564Z,939.29
2019-03-05T10:40:09.558Z,939.29
2019-03-05T10:41:09.542Z,939.26
2019-03-05T10:42:09.571Z,939.34
2019-03-05T10:43:09.549Z,939.26
2019-03-05T10:44:09.503Z,939.23
2019-03-05T10:45:09.491Z,939.31
2019-03-05T10:46:09.486Z,939.21
2019-03-05T10:47:09.475Z,939.31
2019-03-05T10:48:09.485Z,939.26
2019-03-05T10:49:09.476Z,939.22
2019-03-05T10:50:15.197Z,939.30
2019-03-05T10:51:09.428Z,939.29
2019-03-05T10:52:09.413Z,939.31
2019-03-05T10:53:09.403Z,939.21
2019-03-05T10:54:09.409Z,939.25
2019-03-05T10:55:09.467Z,939.23
2019-03-05T10:56:09.371Z,939.33
2019-03-05T10:57:09.364Z,939.15
2019-03-05T10:58:09.345Z,939.25
2019-03-05T10:59:09.376Z,939.30
2019-03-05T11:00:09.328Z,939.18
2019-03-05T11:01:09.335Z,939.23
2019-03-05T11:02:09.316Z,939.24
2019-03-05T11:03:09.288Z,939.36
2019-03-05T11:04:09.276Z,939.15
2019-03-05T11:05:09.279Z,939.18
2019-03-05T11:06:09.272Z,939.25
2019-03-05T11:07:09.266Z,939.14
2019-03-05T11:08:09.231Z,939.25
2019-03-05T11:09:09.222Z,939.26
2019-03-05T11:10:09.237Z,939.23
2019-03-05T11:11:13.442Z,939.27
2019-03-05T11:12:09.192Z,939.20
2019-03-05T11:13:09.215Z,939.18
2019-03-05T11:14:09.165Z,939.14
2019-03-05T11:15:09.157Z,939.20
2019-03-05T11:16:09.342Z,939.17
2019-03-05T11:17:09.136Z,939.12
2019-03-05T11:18:09.121Z,939.16
2019-03-05T11:19:09.132Z,939.12
2019-03-05T11:20:09.104Z,939.20
2019-03-05T11:21:09.111Z,939.11
2019-03-05T11:22:09.086Z,939.09
2019-03-05T11:23:11.550Z,939.15
2019-03-05T11:24:09.052Z,939.10
2019-03-05T11:25:09.062Z,939.11
2019-03-05T11:26:09.032Z,939.10
2019-03-05T11:27:09.044Z,939.03
2019-03-05T11:28:09.013Z,938.96
2019-03-05T11:29:09.004Z,939.14
2019-03-05T11:30:08.980Z,938.99
2019-03-05T11:31:09.009Z,939.03
2019-03-05T11:32:08.966Z,938.96
2019-03-05T11:33:08.979Z,939.00
2019-03-05T11:34:08.949Z,938.91
2019-03-05T11:35:08.936Z,939.03
2019-03-05T11:36:08.917Z,938.92
2019-03-05T11:37:08.934Z,938.92
2019-03-05T11:38:08.905Z,938.93
2019-03-05T11:39:08.897Z,938.96
2019-03-05T11:40:09.247Z,938.95
2019-03-05T11:41:08.871Z,938.95
2019-03-05T11:42:08.865Z,938.90
2019-03-05T11:43:08.846Z,938.85
2019-03-05T11:44:08.873Z,938.90
2019-03-05T11:45:11.620Z,938.94
2019-03-05T11:46:08.809Z,938.95
2019-03-05T11:47:08.798Z,938.82
2019-03-05T11:48:08.788Z,938.82
2019-03-05T11:49:08.817Z,938.80
2019-03-05T11:50:08.798Z,938.76
2019-03-05T11:51:08.755Z,938.85
2019-03-05T11:52:08.745Z,938.75
2019-03-05T11:53:08.795Z,938.84
2019-03-05T11:54:08.727Z,938.82
2019-03-05T11:55:08.740Z,938.80
2019-03-05T11:56:08.726Z,938.84
2019-03-05T11:57:08.688Z,938.87
2019-03-05T11:58:08.687Z,938.86
2019-03-05T11:59:08.667Z,938.86
2019-03-05T12:00:08.656Z,938.86
2019-03-05T12:01:08.656Z,938.85
2019-03-05T12:02:09.849Z,938.84
2019-03-05T12:03:08.622Z,939.02
2019-03-05T12:04:08.615Z,938.98
2019-03-05T12:05:08.596Z,938.96
2019-03-05T12:06:08.598Z,939.05
2019-03-05T12:07:08.577Z,939.02
2019-03-05T12:08:08.590Z,939.11
2019-03-05T12:09:08.557Z,939.16
2019-03-05T12:10:08.547Z,939.13
2019-03-05T12:11:08.555Z,939.20
2019-03-05T12:12:08.519Z,939.21
2019-03-05T12:13:08.510Z,939.28
2019-03-05T12:14:08.518Z,939.24
2019-03-05T12:15:08.496Z,939.34
2019-03-05T12:16:08.475Z,939.28
2019-03-05T12:17:08.519Z,939.35
2019-03-05T12:18:08.460Z,939.35
2019-03-05T12:19:08.450Z,939.31
2019-03-05T12:20:08.483Z,939.41
2019-03-05T12:21:08.429Z,939.34
2019-03-05T12:22:08.419Z,939.38
2019-03-05T12:23:10.368Z,939.34
2019-03-05T12:24:08.391Z,939.42
2019-03-05T12:25:08.376Z,939.48
2019-03-05T12:26:08.384Z,939.48
2019-03-05T12:27:08.352Z,939.49
2019-03-05T12:28:10.558Z,939.47
2019-03-05T12:29:08.367Z,939.49